sensor_id;sensor_type;location;lat;lon;timestamp;P1;durP1;ratioP1;P2;durP2;ratioP2
47025;SDS011;32783;51.756;-2.556;2022-12-18T00:01:24;5.43;;;4.93;;
47025;SDS011;32783;51.756;-2.556;2022-12-18T00:03:50;6.45;;;4.70;;
47025;SDS011;32783;51.756;-2.556;2022-12-18T00:06:16;6.47;;;5.15;;
47025;SDS011;32783;51.756;-2.556;2022-12-18T00:08:42;6.03;;;4.80;;
47025;SDS011;32783;51.756;-2.556;2022-12-18T00:11:11;7.25;;;5.13;;
47025;SDS011;32783;51.756;-2.556;2022-12-18T00:13:37;7.28;;;5.38;;
47025;SDS011;32783;51.756;-2.556;2022-12-18T00:16:03;8.88;;;5.10;;
47025;SDS011;32783;51.756;-2.556;2022-12-18T00:18:29;5.80;;;5.03;;
47025;SDS011;32783;51.756;-2.556;2022-12-18T00:20:57;7.35;;;5.13;;
47025;SDS011;32783;51.756;-2.556;2022-12-18T00:23:24;5.68;;;4.53;;
47025;SDS011;32783;51.756;-2.556;2022-12-18T00:25:49;6.65;;;5.00;;
47025;SDS011;32783;51.756;-2.556;2022-12-18T00:28:14;5.90;;;4.95;;
47025;SDS011;32783;51.756;-2.556;2022-12-18T00:30:40;5.13;;;4.63;;
47025;SDS011;32783;51.756;-2.556;2022-12-18T00:33:05;6.60;;;5.05;;
47025;SDS011;32783;51.756;-2.556;2022-12-18T00:35:31;6.18;;;4.85;;
47025;SDS011;32783;51.756;-2.556;2022-12-18T00:37:56;5.93;;;4.43;;
47025;SDS011;32783;51.756;-2.556;2022-12-18T00:40:22;6.53;;;4.60;;
47025;SDS011;32783;51.756;-2.556;2022-12-18T00:42:47;7.10;;;5.15;;
47025;SDS011;32783;51.756;-2.556;2022-12-18T00:45:22;7.28;;;4.95;;
47025;SDS011;32783;51.756;-2.556;2022-12-18T00:47:51;5.82;;;4.75;;
47025;SDS011;32783;51.756;-2.556;2022-12-18T00:50:17;5.70;;;4.72;;
47025;SDS011;32783;51.756;-2.556;2022-12-18T00:52:43;6.68;;;4.93;;
47025;SDS011;32783;51.756;-2.556;2022-12-18T00:55:08;6.25;;;4.68;;
47025;SDS011;32783;51.756;-2.556;2022-12-18T00:57:34;5.10;;;4.20;;
47025;SDS011;32783;51.756;-2.556;2022-12-18T01:00:00;6.05;;;4.82;;
47025;SDS011;32783;51.756;-2.556;2022-12-18T01:02:25;6.47;;;4.88;;
47025;SDS011;32783;51.756;-2.556;2022-12-18T01:04:51;5.18;;;4.53;;
47025;SDS011;32783;51.756;-2.556;2022-12-18T01:07:16;4.97;;;4.20;;
47025;SDS011;32783;51.756;-2.556;2022-12-18T01:09:42;5.78;;;4.65;;
47025;SDS011;32783;51.756;-2.556;2022-12-18T01:12:07;5.38;;;4.32;;
47025;SDS011;32783;51.756;-2.556;2022-12-18T01:14:32;5.55;;;4.80;;
47025;SDS011;32783;51.756;-2.556;2022-12-18T01:16:58;5.57;;;4.45;;
47025;SDS011;32783;51.756;-2.556;2022-12-18T01:19:23;5.25;;;4.50;;
47025;SDS011;32783;51.756;-2.556;2022-12-18T01:21:49;4.57;;;4.15;;
47025;SDS011;32783;51.756;-2.556;2022-12-18T01:24:14;4.90;;;4.30;;
47025;SDS011;32783;51.756;-2.556;2022-12-18T01:26:40;6.35;;;5.03;;
47025;SDS011;32783;51.756;-2.556;2022-12-18T01:29:05;5.35;;;4.50;;
47025;SDS011;32783;51.756;-2.556;2022-12-18T01:31:31;5.47;;;4.72;;
47025;SDS011;32783;51.756;-2.556;2022-12-18T01:34:00;6.63;;;5.00;;
47025;SDS011;32783;51.756;-2.556;2022-12-18T01:36:29;5.22;;;4.03;;
47025;SDS011;32783;51.756;-2.556;2022-12-18T01:38:56;6.10;;;4.57;;
47025;SDS011;32783;51.756;-2.556;2022-12-18T01:41:25;6.72;;;4.63;;
47025;SDS011;32783;51.756;-2.556;2022-12-18T01:43:53;6.43;;;4.70;;
47025;SDS011;32783;51.756;-2.556;2022-12-18T01:46:22;5.97;;;4.55;;
47025;SDS011;32783;51.756;-2.556;2022-12-18T01:48:49;6.20;;;4.50;;
47025;SDS011;32783;51.756;-2.556;2022-12-18T01:51:17;5.20;;;4.25;;
47025;SDS011;32783;51.756;-2.556;2022-12-18T01:53:43;5.85;;;4.50;;
47025;SDS011;32783;51.756;-2.556;2022-12-18T01:56:11;5.68;;;4.60;;
47025;SDS011;32783;51.756;-2.556;2022-12-18T02:01:06;5.13;;;4.50;;
47025;SDS011;32783;51.756;-2.556;2022-12-18T02:03:32;7.85;;;4.43;;
47025;SDS011;32783;51.756;-2.556;2022-12-18T02:11:24;4.85;;;4.03;;
47025;SDS011;32783;51.756;-2.556;2022-12-18T02:16:52;5.80;;;4.32;;
47025;SDS011;32783;51.756;-2.556;2022-12-18T02:27:05;5.90;;;4.57;;
47025;SDS011;32783;51.756;-2.556;2022-12-18T02:29:39;5.80;;;4.45;;
47025;SDS011;32783;51.756;-2.556;2022-12-18T02:32:09;5.05;;;4.18;;
47025;SDS011;32783;51.756;-2.556;2022-12-18T02:34:39;4.65;;;3.85;;
47025;SDS011;32783;51.756;-2.556;2022-12-18T02:37:05;7.05;;;4.38;;
47025;SDS011;32783;51.756;-2.556;2022-12-18T02:39:36;5.25;;;3.90;;
47025;SDS011;32783;51.756;-2.556;2022-12-18T02:42:02;6.40;;;4.55;;
47025;SDS011;32783;51.756;-2.556;2022-12-18T02:44:33;5.72;;;4.53;;
47025;SDS011;32783;51.756;-2.556;2022-12-18T02:47:00;5.70;;;4.53;;
47025;SDS011;32783;51.756;-2.556;2022-12-18T02:50:28;4.90;;;4.40;;
47025;SDS011;32783;51.756;-2.556;2022-12-18T02:55:18;4.82;;;3.95;;
47025;SDS011;32783;51.756;-2.556;2022-12-18T03:00:28;4.85;;;3.95;;
47025;SDS011;32783;51.756;-2.556;2022-12-18T03:03:59;4.32;;;3.72;;
47025;SDS011;32783;51.756;-2.556;2022-12-18T03:06:23;5.40;;;4.57;;
47025;SDS011;32783;51.756;-2.556;2022-12-18T03:08:51;5.20;;;4.30;;
47025;SDS011;32783;51.756;-2.556;2022-12-18T03:11:19;5.03;;;3.83;;
47025;SDS011;32783;51.756;-2.556;2022-12-18T03:14:05;5.07;;;4.22;;
47025;SDS011;32783;51.756;-2.556;2022-12-18T03:16:32;5.68;;;4.60;;
47025;SDS011;32783;51.756;-2.556;2022-12-18T03:19:01;6.38;;;4.38;;
47025;SDS011;32783;51.756;-2.556;2022-12-18T03:21:29;4.68;;;3.92;;
47025;SDS011;32783;51.756;-2.556;2022-12-18T03:23:59;5.10;;;4.45;;
47025;SDS011;32783;51.756;-2.556;2022-12-18T03:26:25;5.88;;;4.20;;
47025;SDS011;32783;51.756;-2.556;2022-12-18T03:28:56;4.75;;;3.97;;
47025;SDS011;32783;51.756;-2.556;2022-12-18T03:31:24;5.75;;;3.65;;
47025;SDS011;32783;51.756;-2.556;2022-12-18T03:33:53;4.07;;;3.60;;
47025;SDS011;32783;51.756;-2.556;2022-12-18T03:36:19;5.13;;;4.28;;
47025;SDS011;32783;51.756;-2.556;2022-12-18T03:38:45;4.93;;;3.75;;
47025;SDS011;32783;51.756;-2.556;2022-12-18T03:46:51;4.88;;;3.88;;
47025;SDS011;32783;51.756;-2.556;2022-12-18T03:52:23;6.25;;;3.38;;
47025;SDS011;32783;51.756;-2.556;2022-12-18T03:54:52;4.78;;;3.80;;
47025;SDS011;32783;51.756;-2.556;2022-12-18T03:57:20;4.88;;;3.83;;
47025;SDS011;32783;51.756;-2.556;2022-12-18T03:59:48;5.03;;;3.50;;
47025;SDS011;32783;51.756;-2.556;2022-12-18T04:02:16;5.55;;;3.90;;
47025;SDS011;32783;51.756;-2.556;2022-12-18T04:04:42;4.53;;;3.42;;
47025;SDS011;32783;51.756;-2.556;2022-12-18T04:07:08;4.57;;;3.95;;
47025;SDS011;32783;51.756;-2.556;2022-12-18T04:09:34;4.97;;;3.83;;
47025;SDS011;32783;51.756;-2.556;2022-12-18T04:12:01;5.13;;;3.88;;
47025;SDS011;32783;51.756;-2.556;2022-12-18T04:14:26;4.90;;;3.35;;
47025;SDS011;32783;51.756;-2.556;2022-12-18T04:16:52;3.95;;;3.30;;
47025;SDS011;32783;51.756;-2.556;2022-12-18T04:19:17;4.18;;;3.40;;
47025;SDS011;32783;51.756;-2.556;2022-12-18T04:21:43;4.35;;;3.53;;
47025;SDS011;32783;51.756;-2.556;2022-12-18T04:24:08;4.97;;;3.85;;
47025;SDS011;32783;51.756;-2.556;2022-12-18T04:26:33;4.80;;;3.85;;
47025;SDS011;32783;51.756;-2.556;2022-12-18T04:28:59;5.25;;;3.63;;
47025;SDS011;32783;51.756;-2.556;2022-12-18T04:31:24;4.28;;;3.55;;
47025;SDS011;32783;51.756;-2.556;2022-12-18T04:33:50;3.88;;;3.25;;
47025;SDS011;32783;51.756;-2.556;2022-12-18T04:36:15;5.38;;;3.60;;
47025;SDS011;32783;51.756;-2.556;2022-12-18T04:38:41;4.57;;;3.60;;
47025;SDS011;32783;51.756;-2.556;2022-12-18T04:41:06;4.65;;;3.50;;
47025;SDS011;32783;51.756;-2.556;2022-12-18T04:43:31;5.00;;;3.78;;
47025;SDS011;32783;51.756;-2.556;2022-12-18T04:46:04;4.93;;;3.97;;
47025;SDS011;32783;51.756;-2.556;2022-12-18T04:48:31;5.00;;;4.10;;
47025;SDS011;32783;51.756;-2.556;2022-12-18T04:50:56;5.10;;;3.65;;
47025;SDS011;32783;51.756;-2.556;2022-12-18T04:53:21;4.97;;;3.50;;
47025;SDS011;32783;51.756;-2.556;2022-12-18T04:55:47;4.47;;;3.40;;
47025;SDS011;32783;51.756;-2.556;2022-12-18T04:58:12;3.88;;;3.25;;
47025;SDS011;32783;51.756;-2.556;2022-12-18T05:00:38;4.40;;;3.40;;
47025;SDS011;32783;51.756;-2.556;2022-12-18T05:03:03;4.70;;;3.42;;
47025;SDS011;32783;51.756;-2.556;2022-12-18T05:05:28;4.88;;;3.40;;
47025;SDS011;32783;51.756;-2.556;2022-12-18T05:07:54;4.47;;;3.42;;
47025;SDS011;32783;51.756;-2.556;2022-12-18T05:10:19;5.00;;;3.50;;
47025;SDS011;32783;51.756;-2.556;2022-12-18T05:12:45;3.75;;;3.35;;
47025;SDS011;32783;51.756;-2.556;2022-12-18T05:15:29;4.28;;;3.63;;
47025;SDS011;32783;51.756;-2.556;2022-12-18T05:17:56;4.25;;;3.55;;
47025;SDS011;32783;51.756;-2.556;2022-12-18T05:20:22;3.80;;;3.20;;
47025;SDS011;32783;51.756;-2.556;2022-12-18T05:22:47;3.65;;;3.10;;
47025;SDS011;32783;51.756;-2.556;2022-12-18T05:25:13;4.18;;;3.10;;
47025;SDS011;32783;51.756;-2.556;2022-12-18T05:27:38;5.70;;;3.70;;
47025;SDS011;32783;51.756;-2.556;2022-12-18T05:30:04;3.75;;;3.00;;
47025;SDS011;32783;51.756;-2.556;2022-12-18T05:32:30;3.55;;;2.97;;
47025;SDS011;32783;51.756;-2.556;2022-12-18T05:34:55;3.10;;;2.75;;
47025;SDS011;32783;51.756;-2.556;2022-12-18T05:37:22;3.53;;;2.70;;
47025;SDS011;32783;51.756;-2.556;2022-12-18T05:39:47;3.92;;;3.17;;
47025;SDS011;32783;51.756;-2.556;2022-12-18T05:42:14;4.55;;;2.97;;
47025;SDS011;32783;51.756;-2.556;2022-12-18T05:44:39;4.40;;;3.08;;
47025;SDS011;32783;51.756;-2.556;2022-12-18T05:47:05;3.67;;;2.83;;
47025;SDS011;32783;51.756;-2.556;2022-12-18T05:49:31;3.35;;;3.05;;
47025;SDS011;32783;51.756;-2.556;2022-12-18T05:51:56;3.92;;;2.97;;
47025;SDS011;32783;51.756;-2.556;2022-12-18T05:54:22;3.47;;;2.72;;
47025;SDS011;32783;51.756;-2.556;2022-12-18T05:56:47;5.43;;;3.33;;
47025;SDS011;32783;51.756;-2.556;2022-12-18T05:59:12;4.40;;;3.20;;
47025;SDS011;32783;51.756;-2.556;2022-12-18T06:01:38;4.72;;;3.13;;
47025;SDS011;32783;51.756;-2.556;2022-12-18T06:04:03;3.95;;;3.10;;
47025;SDS011;32783;51.756;-2.556;2022-12-18T06:06:29;4.40;;;3.00;;
47025;SDS011;32783;51.756;-2.556;2022-12-18T06:08:55;3.63;;;3.00;;
47025;SDS011;32783;51.756;-2.556;2022-12-18T06:11:22;3.72;;;3.03;;
47025;SDS011;32783;51.756;-2.556;2022-12-18T06:13:50;3.35;;;2.83;;
47025;SDS011;32783;51.756;-2.556;2022-12-18T06:16:16;4.03;;;2.85;;
47025;SDS011;32783;51.756;-2.556;2022-12-18T06:18:42;3.97;;;2.83;;
47025;SDS011;32783;51.756;-2.556;2022-12-18T06:21:07;3.28;;;2.50;;
47025;SDS011;32783;51.756;-2.556;2022-12-18T06:23:32;4.15;;;2.90;;
47025;SDS011;32783;51.756;-2.556;2022-12-18T06:25:58;3.67;;;3.05;;
47025;SDS011;32783;51.756;-2.556;2022-12-18T06:28:23;4.15;;;2.97;;
47025;SDS011;32783;51.756;-2.556;2022-12-18T06:30:49;3.10;;;2.60;;
47025;SDS011;32783;51.756;-2.556;2022-12-18T06:33:15;2.92;;;2.58;;
47025;SDS011;32783;51.756;-2.556;2022-12-18T06:35:40;5.18;;;3.22;;
47025;SDS011;32783;51.756;-2.556;2022-12-18T06:38:06;3.92;;;3.13;;
47025;SDS011;32783;51.756;-2.556;2022-12-18T06:40:31;3.95;;;3.20;;
47025;SDS011;32783;51.756;-2.556;2022-12-18T06:42:57;3.58;;;3.13;;
47025;SDS011;32783;51.756;-2.556;2022-12-18T06:45:22;5.00;;;3.20;;
47025;SDS011;32783;51.756;-2.556;2022-12-18T06:47:48;3.75;;;3.05;;
47025;SDS011;32783;51.756;-2.556;2022-12-18T06:50:13;4.05;;;3.10;;
47025;SDS011;32783;51.756;-2.556;2022-12-18T06:52:39;4.28;;;3.38;;
47025;SDS011;32783;51.756;-2.556;2022-12-18T06:55:06;3.45;;;2.80;;
47025;SDS011;32783;51.756;-2.556;2022-12-18T06:57:34;3.58;;;3.05;;
47025;SDS011;32783;51.756;-2.556;2022-12-18T07:00:00;3.38;;;2.97;;
47025;SDS011;32783;51.756;-2.556;2022-12-18T07:02:25;3.13;;;2.83;;
47025;SDS011;32783;51.756;-2.556;2022-12-18T07:04:51;3.53;;;2.88;;
47025;SDS011;32783;51.756;-2.556;2022-12-18T07:07:16;3.35;;;3.03;;
47025;SDS011;32783;51.756;-2.556;2022-12-18T07:09:42;4.13;;;2.97;;
47025;SDS011;32783;51.756;-2.556;2022-12-18T07:12:07;3.30;;;3.00;;
47025;SDS011;32783;51.756;-2.556;2022-12-18T07:14:33;3.65;;;3.10;;
47025;SDS011;32783;51.756;-2.556;2022-12-18T07:16:58;3.67;;;3.17;;
47025;SDS011;32783;51.756;-2.556;2022-12-18T07:19:24;3.63;;;3.10;;
47025;SDS011;32783;51.756;-2.556;2022-12-18T07:21:50;3.38;;;2.97;;
47025;SDS011;32783;51.756;-2.556;2022-12-18T07:24:16;3.40;;;3.10;;
47025;SDS011;32783;51.756;-2.556;2022-12-18T07:26:41;4.05;;;2.45;;
47025;SDS011;32783;51.756;-2.556;2022-12-18T07:29:07;4.47;;;3.38;;
47025;SDS011;32783;51.756;-2.556;2022-12-18T07:31:32;3.65;;;3.03;;
47025;SDS011;32783;51.756;-2.556;2022-12-18T07:33:58;5.35;;;3.38;;
47025;SDS011;32783;51.756;-2.556;2022-12-18T07:36:23;4.15;;;2.72;;
47025;SDS011;32783;51.756;-2.556;2022-12-18T07:38:49;2.88;;;2.35;;
47025;SDS011;32783;51.756;-2.556;2022-12-18T07:41:16;3.15;;;2.45;;
47025;SDS011;32783;51.756;-2.556;2022-12-18T07:43:42;3.60;;;2.92;;
47025;SDS011;32783;51.756;-2.556;2022-12-18T07:46:08;3.08;;;2.78;;
47025;SDS011;32783;51.756;-2.556;2022-12-18T07:48:34;3.65;;;3.03;;
47025;SDS011;32783;51.756;-2.556;2022-12-18T07:51:00;2.92;;;2.63;;
47025;SDS011;32783;51.756;-2.556;2022-12-18T07:53:29;3.03;;;2.35;;
47025;SDS011;32783;51.756;-2.556;2022-12-18T07:55:56;3.33;;;2.80;;
47025;SDS011;32783;51.756;-2.556;2022-12-18T07:58:22;5.93;;;2.78;;
47025;SDS011;32783;51.756;-2.556;2022-12-18T08:00:47;3.63;;;2.65;;
47025;SDS011;32783;51.756;-2.556;2022-12-18T08:03:13;3.10;;;2.50;;
47025;SDS011;32783;51.756;-2.556;2022-12-18T08:05:38;3.20;;;2.38;;
47025;SDS011;32783;51.756;-2.556;2022-12-18T08:08:03;3.10;;;2.58;;
47025;SDS011;32783;51.756;-2.556;2022-12-18T08:10:29;3.92;;;2.65;;
47025;SDS011;32783;51.756;-2.556;2022-12-18T08:12:54;2.63;;;2.35;;
47025;SDS011;32783;51.756;-2.556;2022-12-18T08:15:20;3.70;;;2.70;;
47025;SDS011;32783;51.756;-2.556;2022-12-18T08:17:45;2.78;;;2.42;;
47025;SDS011;32783;51.756;-2.556;2022-12-18T08:20:11;4.57;;;2.80;;
47025;SDS011;32783;51.756;-2.556;2022-12-18T08:22:36;3.35;;;2.50;;
47025;SDS011;32783;51.756;-2.556;2022-12-18T08:25:02;3.92;;;2.72;;
47025;SDS011;32783;51.756;-2.556;2022-12-18T08:27:28;3.72;;;2.45;;
47025;SDS011;32783;51.756;-2.556;2022-12-18T08:29:54;3.70;;;2.63;;
47025;SDS011;32783;51.756;-2.556;2022-12-18T08:32:20;4.05;;;3.13;;
47025;SDS011;32783;51.756;-2.556;2022-12-18T08:34:45;3.35;;;2.90;;
47025;SDS011;32783;51.756;-2.556;2022-12-18T08:37:10;5.07;;;2.60;;
47025;SDS011;32783;51.756;-2.556;2022-12-18T08:39:36;5.40;;;2.65;;
47025;SDS011;32783;51.756;-2.556;2022-12-18T08:42:01;12.95;;;3.72;;
47025;SDS011;32783;51.756;-2.556;2022-12-18T08:44:45;2.42;;;2.22;;
47025;SDS011;32783;51.756;-2.556;2022-12-18T08:47:11;5.47;;;2.83;;
47025;SDS011;32783;51.756;-2.556;2022-12-18T08:49:36;8.10;;;3.00;;
47025;SDS011;32783;51.756;-2.556;2022-12-18T08:52:01;6.80;;;2.40;;
47025;SDS011;32783;51.756;-2.556;2022-12-18T08:54:28;5.75;;;2.35;;
47025;SDS011;32783;51.756;-2.556;2022-12-18T08:56:53;2.40;;;2.20;;
47025;SDS011;32783;51.756;-2.556;2022-12-18T08:59:19;5.05;;;2.63;;
47025;SDS011;32783;51.756;-2.556;2022-12-18T09:01:45;5.22;;;2.35;;
47025;SDS011;32783;51.756;-2.556;2022-12-18T09:04:11;6.40;;;3.10;;
47025;SDS011;32783;51.756;-2.556;2022-12-18T09:06:37;9.02;;;2.90;;
47025;SDS011;32783;51.756;-2.556;2022-12-18T09:09:03;8.95;;;3.05;;
47025;SDS011;32783;51.756;-2.556;2022-12-18T09:11:29;7.35;;;2.75;;
47025;SDS011;32783;51.756;-2.556;2022-12-18T09:13:58;4.20;;;2.92;;
47025;SDS011;32783;51.756;-2.556;2022-12-18T09:18:50;4.78;;;2.55;;
47025;SDS011;32783;51.756;-2.556;2022-12-18T09:21:17;9.40;;;2.80;;
47025;SDS011;32783;51.756;-2.556;2022-12-18T09:23:48;4.65;;;2.50;;
47025;SDS011;32783;51.756;-2.556;2022-12-18T09:26:16;14.15;;;3.50;;
47025;SDS011;32783;51.756;-2.556;2022-12-18T09:28:42;12.75;;;3.97;;
47025;SDS011;32783;51.756;-2.556;2022-12-18T09:31:08;7.38;;;3.70;;
47025;SDS011;32783;51.756;-2.556;2022-12-18T09:33:36;6.38;;;3.30;;
47025;SDS011;32783;51.756;-2.556;2022-12-18T09:36:03;6.50;;;3.47;;
47025;SDS011;32783;51.756;-2.556;2022-12-18T09:38:30;5.68;;;3.13;;
47025;SDS011;32783;51.756;-2.556;2022-12-18T09:40:57;8.10;;;3.42;;
47025;SDS011;32783;51.756;-2.556;2022-12-18T09:43:42;5.40;;;2.63;;
47025;SDS011;32783;51.756;-2.556;2022-12-18T09:46:11;4.22;;;2.60;;
47025;SDS011;32783;51.756;-2.556;2022-12-18T09:48:42;4.50;;;3.17;;
47025;SDS011;32783;51.756;-2.556;2022-12-18T09:51:17;6.57;;;2.90;;
47025;SDS011;32783;51.756;-2.556;2022-12-18T09:53:53;6.60;;;2.70;;
47025;SDS011;32783;51.756;-2.556;2022-12-18T09:56:22;4.40;;;2.47;;
47025;SDS011;32783;51.756;-2.556;2022-12-18T09:58:57;3.28;;;2.50;;
47025;SDS011;32783;51.756;-2.556;2022-12-18T10:01:24;5.65;;;2.50;;
47025;SDS011;32783;51.756;-2.556;2022-12-18T10:03:50;5.43;;;2.28;;
47025;SDS011;32783;51.756;-2.556;2022-12-18T10:07:02;3.30;;;2.28;;
47025;SDS011;32783;51.756;-2.556;2022-12-18T10:14:49;6.63;;;3.42;;
47025;SDS011;32783;51.756;-2.556;2022-12-18T10:27:54;4.93;;;2.65;;
47025;SDS011;32783;51.756;-2.556;2022-12-18T10:30:23;4.97;;;2.58;;
47025;SDS011;32783;51.756;-2.556;2022-12-18T10:32:49;5.13;;;3.13;;
47025;SDS011;32783;51.756;-2.556;2022-12-18T10:35:25;4.72;;;2.92;;
47025;SDS011;32783;51.756;-2.556;2022-12-18T10:38:05;6.47;;;2.55;;
47025;SDS011;32783;51.756;-2.556;2022-12-18T10:40:32;6.68;;;2.83;;
47025;SDS011;32783;51.756;-2.556;2022-12-18T10:43:13;4.18;;;2.80;;
47025;SDS011;32783;51.756;-2.556;2022-12-18T10:45:39;7.13;;;2.85;;
47025;SDS011;32783;51.756;-2.556;2022-12-18T10:48:17;4.03;;;2.42;;
47025;SDS011;32783;51.756;-2.556;2022-12-18T10:50:45;4.10;;;2.53;;
47025;SDS011;32783;51.756;-2.556;2022-12-18T10:53:13;3.67;;;2.60;;
47025;SDS011;32783;51.756;-2.556;2022-12-18T10:55:44;4.28;;;2.60;;
47025;SDS011;32783;51.756;-2.556;2022-12-18T10:58:24;3.33;;;2.60;;
47025;SDS011;32783;51.756;-2.556;2022-12-18T11:01:01;4.18;;;2.97;;
47025;SDS011;32783;51.756;-2.556;2022-12-18T11:06:16;4.40;;;2.30;;
47025;SDS011;32783;51.756;-2.556;2022-12-18T11:11:51;11.40;;;3.45;;
47025;SDS011;32783;51.756;-2.556;2022-12-18T11:16:54;6.20;;;3.47;;
47025;SDS011;32783;51.756;-2.556;2022-12-18T11:22:03;7.60;;;3.13;;
47025;SDS011;32783;51.756;-2.556;2022-12-18T11:24:49;9.02;;;3.50;;
47025;SDS011;32783;51.756;-2.556;2022-12-18T11:27:18;5.18;;;3.28;;
47025;SDS011;32783;51.756;-2.556;2022-12-18T11:29:43;5.50;;;2.35;;
47025;SDS011;32783;51.756;-2.556;2022-12-18T11:35:11;3.57;;;2.37;;
47025;SDS011;32783;51.756;-2.556;2022-12-18T11:37:43;4.15;;;2.45;;
47025;SDS011;32783;51.756;-2.556;2022-12-18T11:40:56;2.67;;;2.25;;
47025;SDS011;32783;51.756;-2.556;2022-12-18T11:45:40;12.43;;;3.15;;
47025;SDS011;32783;51.756;-2.556;2022-12-18T11:50:58;6.97;;;2.60;;
47025;SDS011;32783;51.756;-2.556;2022-12-18T11:53:25;7.45;;;2.97;;
47025;SDS011;32783;51.756;-2.556;2022-12-18T11:55:54;6.22;;;3.03;;
47025;SDS011;32783;51.756;-2.556;2022-12-18T12:09:13;6.03;;;2.65;;
47025;SDS011;32783;51.756;-2.556;2022-12-18T12:26:01;3.78;;;2.55;;
47025;SDS011;32783;51.756;-2.556;2022-12-18T12:34:26;4.97;;;2.40;;
47025;SDS011;32783;51.756;-2.556;2022-12-18T12:39:30;6.83;;;2.63;;
47025;SDS011;32783;51.756;-2.556;2022-12-18T12:41:57;10.15;;;3.13;;
47025;SDS011;32783;51.756;-2.556;2022-12-18T12:44:43;9.40;;;2.60;;
47025;SDS011;32783;51.756;-2.556;2022-12-18T12:47:20;8.23;;;3.40;;
47025;SDS011;32783;51.756;-2.556;2022-12-18T12:49:50;8.18;;;3.00;;
47025;SDS011;32783;51.756;-2.556;2022-12-18T12:52:50;8.95;;;3.50;;
47025;SDS011;32783;51.756;-2.556;2022-12-18T12:55:20;8.88;;;2.92;;
47025;SDS011;32783;51.756;-2.556;2022-12-18T12:57:54;6.82;;;2.30;;
47025;SDS011;32783;51.756;-2.556;2022-12-18T13:00:21;6.20;;;3.50;;
47025;SDS011;32783;51.756;-2.556;2022-12-18T13:08:28;31.10;;;19.52;;
47025;SDS011;32783;51.756;-2.556;2022-12-18T13:10:56;62.25;;;40.42;;
47025;SDS011;32783;51.756;-2.556;2022-12-18T13:13:51;106.47;;;68.45;;
47025;SDS011;32783;51.756;-2.556;2022-12-18T13:16:18;72.72;;;43.33;;
47025;SDS011;32783;51.756;-2.556;2022-12-18T13:18:49;59.67;;;39.67;;
47025;SDS011;32783;51.756;-2.556;2022-12-18T13:21:29;77.85;;;51.08;;
47025;SDS011;32783;51.756;-2.556;2022-12-18T13:23:55;41.45;;;25.00;;
47025;SDS011;32783;51.756;-2.556;2022-12-18T13:31:57;47.20;;;32.58;;
47025;SDS011;32783;51.756;-2.556;2022-12-18T13:36:55;20.33;;;12.88;;
47025;SDS011;32783;51.756;-2.556;2022-12-18T13:39:31;24.33;;;12.82;;
47025;SDS011;32783;51.756;-2.556;2022-12-18T13:42:40;15.73;;;10.70;;
47025;SDS011;32783;51.756;-2.556;2022-12-18T13:45:31;35.88;;;13.27;;
47025;SDS011;32783;51.756;-2.556;2022-12-18T13:48:20;22.52;;;10.65;;
47025;SDS011;32783;51.756;-2.556;2022-12-18T13:50:57;19.00;;;10.98;;
47025;SDS011;32783;51.756;-2.556;2022-12-18T13:53:29;16.00;;;9.30;;
47025;SDS011;32783;51.756;-2.556;2022-12-18T13:55:58;15.00;;;9.00;;
47025;SDS011;32783;51.756;-2.556;2022-12-18T13:58:23;13.25;;;8.07;;
47025;SDS011;32783;51.756;-2.556;2022-12-18T14:00:49;14.00;;;8.70;;
47025;SDS011;32783;51.756;-2.556;2022-12-18T14:03:16;16.15;;;8.07;;
47025;SDS011;32783;51.756;-2.556;2022-12-18T14:05:55;15.63;;;7.10;;
47025;SDS011;32783;51.756;-2.556;2022-12-18T14:08:23;16.38;;;7.00;;
47025;SDS011;32783;51.756;-2.556;2022-12-18T14:10:49;12.25;;;6.55;;
47025;SDS011;32783;51.756;-2.556;2022-12-18T14:13:23;9.18;;;6.68;;
47025;SDS011;32783;51.756;-2.556;2022-12-18T14:15:54;8.55;;;5.72;;
47025;SDS011;32783;51.756;-2.556;2022-12-18T14:18:21;11.82;;;6.45;;
47025;SDS011;32783;51.756;-2.556;2022-12-18T14:20:50;10.65;;;5.93;;
47025;SDS011;32783;51.756;-2.556;2022-12-18T14:28:56;7.53;;;5.57;;
47025;SDS011;32783;51.756;-2.556;2022-12-18T14:33:50;8.10;;;5.10;;
47025;SDS011;32783;51.756;-2.556;2022-12-18T14:36:16;8.13;;;4.95;;
47025;SDS011;32783;51.756;-2.556;2022-12-18T14:38:43;7.90;;;4.97;;
47025;SDS011;32783;51.756;-2.556;2022-12-18T14:41:14;9.43;;;5.10;;
47025;SDS011;32783;51.756;-2.556;2022-12-18T14:43:41;6.32;;;4.57;;
47025;SDS011;32783;51.756;-2.556;2022-12-18T14:48:59;9.13;;;5.15;;
47025;SDS011;32783;51.756;-2.556;2022-12-18T14:51:26;6.75;;;4.32;;
47025;SDS011;32783;51.756;-2.556;2022-12-18T14:53:54;7.28;;;4.30;;
47025;SDS011;32783;51.756;-2.556;2022-12-18T14:56:22;6.70;;;4.50;;
47025;SDS011;32783;51.756;-2.556;2022-12-18T14:58:52;6.45;;;4.07;;
47025;SDS011;32783;51.756;-2.556;2022-12-18T15:03:46;6.70;;;4.30;;
47025;SDS011;32783;51.756;-2.556;2022-12-18T15:06:21;7.20;;;4.28;;
47025;SDS011;32783;51.756;-2.556;2022-12-18T15:08:51;6.13;;;4.07;;
47025;SDS011;32783;51.756;-2.556;2022-12-18T15:17:20;5.90;;;3.60;;
47025;SDS011;32783;51.756;-2.556;2022-12-18T15:19:47;6.03;;;3.67;;
47025;SDS011;32783;51.756;-2.556;2022-12-18T15:22:18;4.72;;;3.30;;
47025;SDS011;32783;51.756;-2.556;2022-12-18T15:24:50;3.92;;;3.15;;
47025;SDS011;32783;51.756;-2.556;2022-12-18T15:32:35;5.35;;;3.60;;
47025;SDS011;32783;51.756;-2.556;2022-12-18T15:35:23;5.97;;;3.42;;
47025;SDS011;32783;51.756;-2.556;2022-12-18T15:37:48;3.45;;;2.70;;
47025;SDS011;32783;51.756;-2.556;2022-12-18T15:40:18;6.03;;;3.40;;
47025;SDS011;32783;51.756;-2.556;2022-12-18T15:42:45;4.72;;;3.60;;
47025;SDS011;32783;51.756;-2.556;2022-12-18T15:45:29;5.07;;;3.55;;
47025;SDS011;32783;51.756;-2.556;2022-12-18T15:47:55;5.85;;;3.70;;
47025;SDS011;32783;51.756;-2.556;2022-12-18T15:50:20;4.20;;;3.15;;
47025;SDS011;32783;51.756;-2.556;2022-12-18T15:52:46;5.95;;;3.92;;
47025;SDS011;32783;51.756;-2.556;2022-12-18T15:55:13;4.07;;;3.65;;
47025;SDS011;32783;51.756;-2.556;2022-12-18T15:57:58;5.90;;;3.55;;
47025;SDS011;32783;51.756;-2.556;2022-12-18T16:00:24;5.38;;;3.95;;
47025;SDS011;32783;51.756;-2.556;2022-12-18T16:02:50;6.13;;;3.75;;
47025;SDS011;32783;51.756;-2.556;2022-12-18T16:05:16;4.70;;;3.75;;
47025;SDS011;32783;51.756;-2.556;2022-12-18T16:07:43;4.10;;;3.45;;
47025;SDS011;32783;51.756;-2.556;2022-12-18T16:10:09;6.03;;;3.80;;
47025;SDS011;32783;51.756;-2.556;2022-12-18T16:12:34;4.72;;;4.05;;
47025;SDS011;32783;51.756;-2.556;2022-12-18T16:15:00;4.78;;;4.13;;
47025;SDS011;32783;51.756;-2.556;2022-12-18T16:17:26;3.78;;;3.42;;
47025;SDS011;32783;51.756;-2.556;2022-12-18T16:19:51;4.40;;;3.58;;
47025;SDS011;32783;51.756;-2.556;2022-12-18T16:22:18;4.95;;;3.60;;
47025;SDS011;32783;51.756;-2.556;2022-12-18T16:24:48;5.07;;;3.50;;
47025;SDS011;32783;51.756;-2.556;2022-12-18T16:27:15;4.28;;;3.40;;
47025;SDS011;32783;51.756;-2.556;2022-12-18T16:29:41;5.45;;;3.47;;
47025;SDS011;32783;51.756;-2.556;2022-12-18T16:32:06;4.60;;;3.78;;
47025;SDS011;32783;51.756;-2.556;2022-12-18T16:34:32;5.05;;;3.70;;
47025;SDS011;32783;51.756;-2.556;2022-12-18T16:37:00;4.68;;;3.42;;
47025;SDS011;32783;51.756;-2.556;2022-12-18T16:39:26;3.80;;;3.17;;
47025;SDS011;32783;51.756;-2.556;2022-12-18T16:41:52;7.07;;;4.38;;
47025;SDS011;32783;51.756;-2.556;2022-12-18T16:44:18;4.38;;;3.70;;
47025;SDS011;32783;51.756;-2.556;2022-12-18T16:46:44;4.60;;;3.55;;
47025;SDS011;32783;51.756;-2.556;2022-12-18T16:49:11;4.13;;;3.05;;
47025;SDS011;32783;51.756;-2.556;2022-12-18T16:51:37;4.43;;;3.67;;
47025;SDS011;32783;51.756;-2.556;2022-12-18T16:54:02;4.18;;;3.67;;
47025;SDS011;32783;51.756;-2.556;2022-12-18T16:56:28;4.03;;;3.30;;
47025;SDS011;32783;51.756;-2.556;2022-12-18T16:58:54;4.07;;;3.20;;
47025;SDS011;32783;51.756;-2.556;2022-12-18T17:01:21;5.00;;;3.70;;
47025;SDS011;32783;51.756;-2.556;2022-12-18T17:03:57;3.53;;;3.17;;